Airport View

Enter AWOS ICAO identifier for current METAR.

ex. KFNL

KHST 262256Z AUTO 06004KT 10SM CLR 19/13 A2998 RMK AO2 SLP156 T01910126 $

26 Jan 2020 23:26

Other Area AWOS: KTMB - KMIA - KOPF - KHWO

TAF KHST 2620/2802 33006KT 9999 FEW250 QNH3000INS BECMG 2622/2623 07005KT 9999 SCT250 QNH3001INS BECMG 2713/2714 33009KT 9999 BKN100 BKN250 QNH2999INS TX25/2719Z TN12/2712Z